This is the latest recevied weather packets stored in our database for station/object KC8BSD. If no packets are shown the sender has not sent any weather packets the latest 1 day(s).
| Time | Temp. | Humidity | Pressure | Rain* | Wind** | Luminosity | Snow |
|---|---|---|---|---|---|---|---|
| 1778069277 | 7.78° C | 64% | 1012 hPa | 0 mm | - | 123 W/m² | - |
| 1778068975 | 7.22° C | 67% | 1012 hPa | 0 mm | - | 87 W/m² | - |
| 1778068068 | 7.22° C | 64% | 1011.8 hPa | 0 mm | - | 63 W/m² | - |
| 1778067765 | 7.22° C | 64% | 1011.9 hPa | 0 mm | - | 75 W/m² | - |
| 1778067161 | 6.67° C | 65% | 1011.4 hPa | 0 mm | - | 55 W/m² | - |
| 1778066857 | 6.11° C | 67% | 1011.7 hPa | 0 mm | - | 50 W/m² | - |
| 1778065950 | 5.56° C | 68% | 1011.4 hPa | 0 mm | - | 19 W/m² | - |
| 1778064436 | 6.11° C | 66% | 1011.1 hPa | 0 mm | - | 10 W/m² | - |
| 1778064133 | 6.11° C | 65% | 1011 hPa | 0 mm | - | 6 W/m² | - |
| 1778063830 | 6.11° C | 65% | 1011.1 hPa | 0 mm | - | 4 W/m² | - |
| 1778063225 | 6.67° C | 63% | 1010.9 hPa | 0 mm | - | 1 W/m² | - |
| 1778062923 | 6.67° C | 63% | 1010.9 hPa | 0 mm | - | 0 W/m² | - |
| 1778062619 | 6.67° C | 62% | 1011.2 hPa | 0 mm | - | 0 W/m² | - |
| 1778062014 | 7.22° C | 61% | 1010.9 hPa | 0 mm | - | 0 W/m² | - |
| 1778061410 | 7.22° C | 60% | 1011 hPa | 0 mm | - | 0 W/m² | - |
| 1778060804 | 7.22° C | 60% | 1010.7 hPa | 0 mm | - | 0 W/m² | - |
| 1778060200 | 7.78° C | 60% | 1010.4 hPa | 0 mm | - | 0 W/m² | - |
| 1778059897 | 7.78° C | 59% | 1010.4 hPa | 0 mm | - | 0 W/m² | - |
| 1778058385 | 7.78° C | 60% | 1010.6 hPa | 0 mm | - | 0 W/m² | - |
| 1778057474 | 7.78° C | 61% | 1010.4 hPa | 0 mm | - | 0 W/m² | - |
| 1778056262 | 7.78° C | 60% | 1010.1 hPa | 0 mm | - | 0 W/m² | - |
| 1778055654 | 7.78° C | 59% | 1010.2 hPa | 0 mm | - | 0 W/m² | - |
| 1778055049 | 7.78° C | 60% | 1010.3 hPa | 0 mm | - | 0 W/m² | - |
| 1778054444 | 7.78° C | 60% | 1010.2 hPa | 0 mm | - | 0 W/m² | - |
| 1778054142 | 7.78° C | 60% | 1010.3 hPa | 0 mm | - | 0 W/m² | - |
* Rain latest hour (hover to see other rain measurements)
** Current wind speed in m/s (hover to see current wind gust speed)